sensor_id;sensor_type;location;lat;lon;timestamp;P1;durP1;ratioP1;P2;durP2;ratioP2
31768;SDS011;18342;52.132;21.048;2022-09-03T00:01:07;7.47;;;4.00;;
31768;SDS011;18342;52.132;21.048;2022-09-03T00:03:44;7.97;;;3.50;;
31768;SDS011;18342;52.132;21.048;2022-09-03T00:06:33;7.57;;;3.60;;
31768;SDS011;18342;52.132;21.048;2022-09-03T00:14:37;7.53;;;3.60;;
31768;SDS011;18342;52.132;21.048;2022-09-03T00:17:10;5.40;;;3.33;;
31768;SDS011;18342;52.132;21.048;2022-09-03T00:19:54;8.67;;;3.80;;
31768;SDS011;18342;52.132;21.048;2022-09-03T00:22:27;8.47;;;3.40;;
31768;SDS011;18342;52.132;21.048;2022-09-03T00:25:19;4.80;;;3.33;;
31768;SDS011;18342;52.132;21.048;2022-09-03T00:27:50;4.33;;;3.17;;
31768;SDS011;18342;52.132;21.048;2022-09-03T00:30:19;10.27;;;3.40;;
31768;SDS011;18342;52.132;21.048;2022-09-03T00:32:50;8.57;;;3.07;;
31768;SDS011;18342;52.132;21.048;2022-09-03T00:35:34;9.97;;;3.67;;
31768;SDS011;18342;52.132;21.048;2022-09-03T00:38:07;7.80;;;3.37;;
31768;SDS011;18342;52.132;21.048;2022-09-03T00:51:25;6.43;;;3.37;;
31768;SDS011;18342;52.132;21.048;2022-09-03T00:57:00;5.73;;;3.37;;
31768;SDS011;18342;52.132;21.048;2022-09-03T00:59:40;4.83;;;3.03;;
31768;SDS011;18342;52.132;21.048;2022-09-03T01:08:08;5.93;;;3.53;;
31768;SDS011;18342;52.132;21.048;2022-09-03T01:13:35;6.73;;;3.20;;
31768;SDS011;18342;52.132;21.048;2022-09-03T01:18:47;7.83;;;3.47;;
31768;SDS011;18342;52.132;21.048;2022-09-03T01:24:24;5.93;;;3.50;;
31768;SDS011;18342;52.132;21.048;2022-09-03T01:27:08;7.57;;;4.33;;
31768;SDS011;18342;52.132;21.048;2022-09-03T01:29:47;7.37;;;3.30;;
31768;SDS011;18342;52.132;21.048;2022-09-03T01:41:13;7.73;;;4.10;;
31768;SDS011;18342;52.132;21.048;2022-09-03T01:47:17;7.13;;;4.30;;
31768;SDS011;18342;52.132;21.048;2022-09-03T01:49:55;8.83;;;3.97;;
31768;SDS011;18342;52.132;21.048;2022-09-03T01:55:27;6.67;;;4.07;;
31768;SDS011;18342;52.132;21.048;2022-09-03T01:58:10;6.70;;;4.47;;
31768;SDS011;18342;52.132;21.048;2022-09-03T02:00:39;4.63;;;3.70;;
31768;SDS011;18342;52.132;21.048;2022-09-03T02:03:07;8.67;;;4.57;;
31768;SDS011;18342;52.132;21.048;2022-09-03T02:05:35;8.17;;;3.93;;
31768;SDS011;18342;52.132;21.048;2022-09-03T02:13:10;9.47;;;3.93;;
31768;SDS011;18342;52.132;21.048;2022-09-03T02:15:47;5.40;;;3.67;;
31768;SDS011;18342;52.132;21.048;2022-09-03T02:18:20;7.23;;;3.97;;
31768;SDS011;18342;52.132;21.048;2022-09-03T02:20:49;8.83;;;3.83;;
31768;SDS011;18342;52.132;21.048;2022-09-03T02:23:18;12.80;;;3.53;;
31768;SDS011;18342;52.132;21.048;2022-09-03T02:25:47;8.33;;;4.13;;
31768;SDS011;18342;52.132;21.048;2022-09-03T02:28:16;4.50;;;3.43;;
31768;SDS011;18342;52.132;21.048;2022-09-03T02:30:43;6.63;;;3.53;;
31768;SDS011;18342;52.132;21.048;2022-09-03T02:33:09;8.97;;;4.23;;
31768;SDS011;18342;52.132;21.048;2022-09-03T02:35:35;11.10;;;3.80;;
31768;SDS011;18342;52.132;21.048;2022-09-03T02:38:11;7.40;;;3.57;;
31768;SDS011;18342;52.132;21.048;2022-09-03T02:40:39;7.17;;;3.67;;
31768;SDS011;18342;52.132;21.048;2022-09-03T02:43:04;8.37;;;3.90;;
31768;SDS011;18342;52.132;21.048;2022-09-03T02:45:36;5.90;;;3.70;;
31768;SDS011;18342;52.132;21.048;2022-09-03T02:48:09;6.97;;;3.47;;
31768;SDS011;18342;52.132;21.048;2022-09-03T02:50:39;5.57;;;3.77;;
31768;SDS011;18342;52.132;21.048;2022-09-03T02:53:06;8.23;;;3.93;;
31768;SDS011;18342;52.132;21.048;2022-09-03T02:55:32;8.93;;;3.97;;
31768;SDS011;18342;52.132;21.048;2022-09-03T02:57:58;5.87;;;3.60;;
31768;SDS011;18342;52.132;21.048;2022-09-03T03:00:24;5.83;;;3.90;;
31768;SDS011;18342;52.132;21.048;2022-09-03T03:02:50;9.03;;;3.60;;
31768;SDS011;18342;52.132;21.048;2022-09-03T03:05:18;8.47;;;3.47;;
31768;SDS011;18342;52.132;21.048;2022-09-03T03:07:51;6.50;;;3.97;;
31768;SDS011;18342;52.132;21.048;2022-09-03T03:10:17;7.53;;;3.70;;
31768;SDS011;18342;52.132;21.048;2022-09-03T03:12:42;6.50;;;4.13;;
31768;SDS011;18342;52.132;21.048;2022-09-03T03:15:09;4.90;;;3.20;;
31768;SDS011;18342;52.132;21.048;2022-09-03T03:17:34;7.33;;;3.40;;
31768;SDS011;18342;52.132;21.048;2022-09-03T03:20:00;5.87;;;3.67;;
31768;SDS011;18342;52.132;21.048;2022-09-03T03:22:26;7.27;;;3.80;;
31768;SDS011;18342;52.132;21.048;2022-09-03T03:24:52;6.03;;;3.13;;
31768;SDS011;18342;52.132;21.048;2022-09-03T03:27:19;5.23;;;3.23;;
31768;SDS011;18342;52.132;21.048;2022-09-03T03:29:45;6.53;;;3.57;;
31768;SDS011;18342;52.132;21.048;2022-09-03T03:32:10;6.40;;;3.53;;
31768;SDS011;18342;52.132;21.048;2022-09-03T03:34:36;5.53;;;3.50;;
31768;SDS011;18342;52.132;21.048;2022-09-03T03:37:03;6.97;;;3.73;;
31768;SDS011;18342;52.132;21.048;2022-09-03T03:39:29;8.40;;;3.60;;
31768;SDS011;18342;52.132;21.048;2022-09-03T03:41:55;6.27;;;3.37;;
31768;SDS011;18342;52.132;21.048;2022-09-03T03:44:21;5.60;;;3.50;;
31768;SDS011;18342;52.132;21.048;2022-09-03T03:46:46;6.00;;;3.40;;
31768;SDS011;18342;52.132;21.048;2022-09-03T03:49:12;5.83;;;2.97;;
31768;SDS011;18342;52.132;21.048;2022-09-03T03:51:38;7.63;;;3.37;;
31768;SDS011;18342;52.132;21.048;2022-09-03T03:54:05;7.27;;;3.20;;
31768;SDS011;18342;52.132;21.048;2022-09-03T03:56:31;5.97;;;3.23;;
31768;SDS011;18342;52.132;21.048;2022-09-03T03:58:57;6.03;;;3.10;;
31768;SDS011;18342;52.132;21.048;2022-09-03T04:01:24;4.60;;;3.40;;
31768;SDS011;18342;52.132;21.048;2022-09-03T04:03:53;10.57;;;3.40;;
31768;SDS011;18342;52.132;21.048;2022-09-03T04:06:20;6.93;;;3.67;;
31768;SDS011;18342;52.132;21.048;2022-09-03T04:08:46;8.70;;;3.63;;
31768;SDS011;18342;52.132;21.048;2022-09-03T04:11:14;6.17;;;2.97;;
31768;SDS011;18342;52.132;21.048;2022-09-03T04:13:42;7.40;;;3.43;;
31768;SDS011;18342;52.132;21.048;2022-09-03T04:16:10;5.90;;;2.70;;
31768;SDS011;18342;52.132;21.048;2022-09-03T04:18:37;6.57;;;3.70;;
31768;SDS011;18342;52.132;21.048;2022-09-03T04:21:07;5.30;;;2.77;;
31768;SDS011;18342;52.132;21.048;2022-09-03T04:23:35;5.17;;;3.07;;
31768;SDS011;18342;52.132;21.048;2022-09-03T04:26:03;5.80;;;3.20;;
31768;SDS011;18342;52.132;21.048;2022-09-03T04:28:29;3.90;;;2.93;;
31768;SDS011;18342;52.132;21.048;2022-09-03T04:30:59;4.03;;;3.03;;
31768;SDS011;18342;52.132;21.048;2022-09-03T04:33:26;5.57;;;3.30;;
31768;SDS011;18342;52.132;21.048;2022-09-03T04:35:51;5.33;;;3.37;;
31768;SDS011;18342;52.132;21.048;2022-09-03T04:38:17;6.77;;;3.47;;
31768;SDS011;18342;52.132;21.048;2022-09-03T04:40:42;6.43;;;3.27;;
31768;SDS011;18342;52.132;21.048;2022-09-03T04:43:15;5.57;;;3.10;;
31768;SDS011;18342;52.132;21.048;2022-09-03T04:45:41;7.30;;;3.73;;
31768;SDS011;18342;52.132;21.048;2022-09-03T04:48:06;8.97;;;3.17;;
31768;SDS011;18342;52.132;21.048;2022-09-03T04:50:34;6.13;;;3.40;;
31768;SDS011;18342;52.132;21.048;2022-09-03T04:53:00;7.00;;;3.07;;
31768;SDS011;18342;52.132;21.048;2022-09-03T04:55:28;7.60;;;3.67;;
31768;SDS011;18342;52.132;21.048;2022-09-03T04:58:01;5.93;;;3.57;;
31768;SDS011;18342;52.132;21.048;2022-09-03T05:00:27;5.43;;;3.13;;
31768;SDS011;18342;52.132;21.048;2022-09-03T05:02:52;6.53;;;3.43;;
31768;SDS011;18342;52.132;21.048;2022-09-03T05:05:18;4.80;;;2.87;;
31768;SDS011;18342;52.132;21.048;2022-09-03T05:07:44;5.37;;;2.97;;
31768;SDS011;18342;52.132;21.048;2022-09-03T05:10:10;4.33;;;2.93;;
31768;SDS011;18342;52.132;21.048;2022-09-03T05:12:40;5.70;;;3.20;;
31768;SDS011;18342;52.132;21.048;2022-09-03T05:15:06;5.47;;;2.80;;
31768;SDS011;18342;52.132;21.048;2022-09-03T05:17:32;7.07;;;3.30;;
31768;SDS011;18342;52.132;21.048;2022-09-03T05:19:58;4.77;;;2.83;;
31768;SDS011;18342;52.132;21.048;2022-09-03T05:22:23;12.33;;;3.47;;
31768;SDS011;18342;52.132;21.048;2022-09-03T05:24:49;8.83;;;3.13;;
31768;SDS011;18342;52.132;21.048;2022-09-03T05:27:15;5.23;;;2.80;;
31768;SDS011;18342;52.132;21.048;2022-09-03T05:29:44;4.70;;;2.77;;
31768;SDS011;18342;52.132;21.048;2022-09-03T05:32:10;6.97;;;2.90;;
31768;SDS011;18342;52.132;21.048;2022-09-03T05:34:37;6.53;;;3.77;;
31768;SDS011;18342;52.132;21.048;2022-09-03T05:37:03;5.77;;;2.80;;
31768;SDS011;18342;52.132;21.048;2022-09-03T05:39:28;6.17;;;2.57;;
31768;SDS011;18342;52.132;21.048;2022-09-03T05:41:54;4.10;;;2.70;;
31768;SDS011;18342;52.132;21.048;2022-09-03T05:44:20;8.03;;;2.50;;
31768;SDS011;18342;52.132;21.048;2022-09-03T05:46:47;4.17;;;2.40;;
31768;SDS011;18342;52.132;21.048;2022-09-03T05:49:14;8.33;;;2.60;;
31768;SDS011;18342;52.132;21.048;2022-09-03T05:51:39;4.00;;;2.47;;
31768;SDS011;18342;52.132;21.048;2022-09-03T05:54:06;4.77;;;2.30;;
31768;SDS011;18342;52.132;21.048;2022-09-03T05:56:35;6.30;;;2.30;;
31768;SDS011;18342;52.132;21.048;2022-09-03T05:59:04;3.47;;;2.20;;
31768;SDS011;18342;52.132;21.048;2022-09-03T06:01:34;5.63;;;2.27;;
31768;SDS011;18342;52.132;21.048;2022-09-03T06:04:03;7.10;;;2.30;;
31768;SDS011;18342;52.132;21.048;2022-09-03T06:06:35;3.93;;;2.40;;
31768;SDS011;18342;52.132;21.048;2022-09-03T06:09:05;5.27;;;2.10;;
31768;SDS011;18342;52.132;21.048;2022-09-03T06:11:33;3.23;;;2.30;;
31768;SDS011;18342;52.132;21.048;2022-09-03T06:14:01;5.97;;;2.00;;
31768;SDS011;18342;52.132;21.048;2022-09-03T06:16:30;5.63;;;2.67;;
31768;SDS011;18342;52.132;21.048;2022-09-03T06:18:56;2.30;;;1.73;;
31768;SDS011;18342;52.132;21.048;2022-09-03T06:21:22;7.97;;;2.10;;
31768;SDS011;18342;52.132;21.048;2022-09-03T06:23:52;3.03;;;2.00;;
31768;SDS011;18342;52.132;21.048;2022-09-03T06:26:23;4.77;;;2.40;;
31768;SDS011;18342;52.132;21.048;2022-09-03T06:28:49;3.37;;;2.10;;
31768;SDS011;18342;52.132;21.048;2022-09-03T06:31:19;3.33;;;1.63;;
31768;SDS011;18342;52.132;21.048;2022-09-03T06:33:45;4.10;;;1.83;;
31768;SDS011;18342;52.132;21.048;2022-09-03T06:36:13;3.00;;;1.63;;
31768;SDS011;18342;52.132;21.048;2022-09-03T06:38:40;5.97;;;1.93;;
31768;SDS011;18342;52.132;21.048;2022-09-03T06:41:10;5.10;;;2.20;;
31768;SDS011;18342;52.132;21.048;2022-09-03T06:43:47;3.77;;;1.77;;
31768;SDS011;18342;52.132;21.048;2022-09-03T06:46:14;4.13;;;2.00;;
31768;SDS011;18342;52.132;21.048;2022-09-03T06:48:41;3.53;;;2.10;;
31768;SDS011;18342;52.132;21.048;2022-09-03T06:51:08;2.80;;;2.20;;
31768;SDS011;18342;52.132;21.048;2022-09-03T06:53:36;2.17;;;1.65;;
31768;SDS011;18342;52.132;21.048;2022-09-03T06:56:08;6.60;;;2.20;;
31768;SDS011;18342;52.132;21.048;2022-09-03T06:58:36;3.43;;;1.90;;
31768;SDS011;18342;52.132;21.048;2022-09-03T07:01:05;5.80;;;2.13;;
31768;SDS011;18342;52.132;21.048;2022-09-03T07:03:39;4.97;;;1.93;;
31768;SDS011;18342;52.132;21.048;2022-09-03T07:06:06;2.60;;;2.00;;
31768;SDS011;18342;52.132;21.048;2022-09-03T07:08:40;3.47;;;1.95;;
31768;SDS011;18342;52.132;21.048;2022-09-03T07:11:08;2.83;;;2.17;;
31768;SDS011;18342;52.132;21.048;2022-09-03T07:13:36;2.53;;;1.50;;
31768;SDS011;18342;52.132;21.048;2022-09-03T07:16:09;2.83;;;1.50;;
31768;SDS011;18342;52.132;21.048;2022-09-03T07:18:36;4.67;;;2.03;;
31768;SDS011;18342;52.132;21.048;2022-09-03T07:21:04;7.00;;;1.60;;
31768;SDS011;18342;52.132;21.048;2022-09-03T07:23:31;2.85;;;1.75;;
31768;SDS011;18342;52.132;21.048;2022-09-03T07:25:59;3.77;;;1.57;;
31768;SDS011;18342;52.132;21.048;2022-09-03T07:28:27;3.37;;;1.60;;
31768;SDS011;18342;52.132;21.048;2022-09-03T07:30:54;5.17;;;1.70;;
31768;SDS011;18342;52.132;21.048;2022-09-03T07:33:29;7.28;;;2.30;;
31768;SDS011;18342;52.132;21.048;2022-09-03T07:36:00;7.45;;;2.10;;
31768;SDS011;18342;52.132;21.048;2022-09-03T07:38:27;2.25;;;1.70;;
31768;SDS011;18342;52.132;21.048;2022-09-03T07:40:56;2.83;;;1.88;;
31768;SDS011;18342;52.132;21.048;2022-09-03T07:43:26;3.03;;;1.60;;
31768;SDS011;18342;52.132;21.048;2022-09-03T07:45:53;3.97;;;1.73;;
31768;SDS011;18342;52.132;21.048;2022-09-03T07:48:21;7.50;;;2.30;;
31768;SDS011;18342;52.132;21.048;2022-09-03T07:50:47;5.10;;;1.67;;
31768;SDS011;18342;52.132;21.048;2022-09-03T07:53:16;4.93;;;1.63;;
31768;SDS011;18342;52.132;21.048;2022-09-03T07:55:44;5.55;;;1.92;;
31768;SDS011;18342;52.132;21.048;2022-09-03T07:58:10;2.33;;;1.60;;
31768;SDS011;18342;52.132;21.048;2022-09-03T08:00:36;3.65;;;1.85;;
31768;SDS011;18342;52.132;21.048;2022-09-03T08:03:03;2.22;;;1.40;;
31768;SDS011;18342;52.132;21.048;2022-09-03T08:05:32;3.45;;;1.60;;
31768;SDS011;18342;52.132;21.048;2022-09-03T08:08:00;4.68;;;1.60;;
31768;SDS011;18342;52.132;21.048;2022-09-03T08:10:27;4.70;;;1.80;;
31768;SDS011;18342;52.132;21.048;2022-09-03T08:12:54;2.90;;;1.60;;
31768;SDS011;18342;52.132;21.048;2022-09-03T08:15:24;9.38;;;1.88;;
31768;SDS011;18342;52.132;21.048;2022-09-03T08:17:50;3.95;;;1.80;;
31768;SDS011;18342;52.132;21.048;2022-09-03T08:20:16;4.57;;;1.50;;
31768;SDS011;18342;52.132;21.048;2022-09-03T08:22:42;3.97;;;1.42;;
31768;SDS011;18342;52.132;21.048;2022-09-03T08:25:08;4.32;;;1.70;;
31768;SDS011;18342;52.132;21.048;2022-09-03T08:27:33;2.80;;;1.52;;
31768;SDS011;18342;52.132;21.048;2022-09-03T08:29:59;5.70;;;1.95;;
31768;SDS011;18342;52.132;21.048;2022-09-03T08:32:25;3.20;;;1.73;;
31768;SDS011;18342;52.132;21.048;2022-09-03T08:34:51;3.03;;;1.63;;
31768;SDS011;18342;52.132;21.048;2022-09-03T08:37:17;1.48;;;1.00;;
31768;SDS011;18342;52.132;21.048;2022-09-03T08:39:43;3.53;;;1.33;;
31768;SDS011;18342;52.132;21.048;2022-09-03T08:44:48;3.65;;;1.48;;
31768;SDS011;18342;52.132;21.048;2022-09-03T08:50:12;2.72;;;1.17;;
31768;SDS011;18342;52.132;21.048;2022-09-03T09:00:56;1.92;;;1.30;;
31768;SDS011;18342;52.132;21.048;2022-09-03T09:06:22;3.33;;;1.30;;
31768;SDS011;18342;52.132;21.048;2022-09-03T09:12:01;1.30;;;1.20;;
31768;SDS011;18342;52.132;21.048;2022-09-03T09:20:18;4.30;;;1.10;;
31768;SDS011;18342;52.132;21.048;2022-09-03T09:22:49;1.33;;;1.17;;
31768;SDS011;18342;52.132;21.048;2022-09-03T09:25:21;3.53;;;1.20;;
31768;SDS011;18342;52.132;21.048;2022-09-03T09:27:51;3.13;;;1.00;;
31768;SDS011;18342;52.132;21.048;2022-09-03T09:30:41;1.52;;;1.00;;
31768;SDS011;18342;52.132;21.048;2022-09-03T09:33:08;4.30;;;1.10;;
31768;SDS011;18342;52.132;21.048;2022-09-03T09:35:34;4.22;;;1.10;;
31768;SDS011;18342;52.132;21.048;2022-09-03T09:38:00;3.28;;;1.35;;
31768;SDS011;18342;52.132;21.048;2022-09-03T09:43:19;2.00;;;1.27;;
31768;SDS011;18342;52.132;21.048;2022-09-03T09:45:46;1.63;;;1.10;;
31768;SDS011;18342;52.132;21.048;2022-09-03T09:48:19;2.15;;;1.15;;
31768;SDS011;18342;52.132;21.048;2022-09-03T09:53:30;1.20;;;0.90;;
31768;SDS011;18342;52.132;21.048;2022-09-03T09:55:56;2.42;;;0.98;;
31768;SDS011;18342;52.132;21.048;2022-09-03T09:58:23;2.03;;;1.00;;
31768;SDS011;18342;52.132;21.048;2022-09-03T10:00:55;1.52;;;0.90;;
31768;SDS011;18342;52.132;21.048;2022-09-03T10:03:22;2.35;;;1.00;;
31768;SDS011;18342;52.132;21.048;2022-09-03T10:06:04;8.10;;;1.45;;
31768;SDS011;18342;52.132;21.048;2022-09-03T10:09:13;6.25;;;1.35;;
31768;SDS011;18342;52.132;21.048;2022-09-03T10:11:43;2.35;;;1.35;;
31768;SDS011;18342;52.132;21.048;2022-09-03T10:14:36;4.93;;;1.55;;
31768;SDS011;18342;52.132;21.048;2022-09-03T10:20:04;4.00;;;1.10;;
31768;SDS011;18342;52.132;21.048;2022-09-03T10:28:14;3.72;;;0.90;;
31768;SDS011;18342;52.132;21.048;2022-09-03T10:30:55;1.33;;;0.77;;
31768;SDS011;18342;52.132;21.048;2022-09-03T10:33:59;2.88;;;1.00;;
31768;SDS011;18342;52.132;21.048;2022-09-03T10:39:36;1.65;;;0.80;;
31768;SDS011;18342;52.132;21.048;2022-09-03T10:50:21;1.75;;;1.20;;
31768;SDS011;18342;52.132;21.048;2022-09-03T11:00:52;2.50;;;1.00;;
31768;SDS011;18342;52.132;21.048;2022-09-03T11:08:24;1.42;;;1.00;;
31768;SDS011;18342;52.132;21.048;2022-09-03T11:14:09;2.55;;;1.00;;
31768;SDS011;18342;52.132;21.048;2022-09-03T11:16:42;1.88;;;1.02;;
31768;SDS011;18342;52.132;21.048;2022-09-03T11:19:13;3.75;;;1.10;;
31768;SDS011;18342;52.132;21.048;2022-09-03T11:21:42;3.20;;;1.00;;
31768;SDS011;18342;52.132;21.048;2022-09-03T11:26:37;1.63;;;1.05;;
31768;SDS011;18342;52.132;21.048;2022-09-03T11:29:36;1.85;;;0.88;;
31768;SDS011;18342;52.132;21.048;2022-09-03T11:37:59;2.53;;;1.02;;
31768;SDS011;18342;52.132;21.048;2022-09-03T11:40:33;3.53;;;0.95;;
31768;SDS011;18342;52.132;21.048;2022-09-03T11:43:44;2.65;;;0.93;;
31768;SDS011;18342;52.132;21.048;2022-09-03T11:46:39;2.17;;;0.90;;
31768;SDS011;18342;52.132;21.048;2022-09-03T11:48:46;2.00;;;1.10;;
31768;SDS011;18342;52.132;21.048;2022-09-03T11:51:17;2.45;;;0.95;;
31768;SDS011;18342;52.132;21.048;2022-09-03T11:54:03;4.65;;;1.00;;
31768;SDS011;18342;52.132;21.048;2022-09-03T11:56:35;3.10;;;1.00;;
31768;SDS011;18342;52.132;21.048;2022-09-03T12:01:43;2.00;;;1.00;;
31768;SDS011;18342;52.132;21.048;2022-09-03T12:04:25;3.70;;;1.10;;
31768;SDS011;18342;52.132;21.048;2022-09-03T12:18:22;1.90;;;0.90;;
31768;SDS011;18342;52.132;21.048;2022-09-03T12:26:13;1.75;;;0.82;;
31768;SDS011;18342;52.132;21.048;2022-09-03T12:28:42;3.42;;;0.98;;
31768;SDS011;18342;52.132;21.048;2022-09-03T12:33:47;1.50;;;1.00;;
31768;SDS011;18342;52.132;21.048;2022-09-03T12:36:23;0.88;;;0.80;;
31768;SDS011;18342;52.132;21.048;2022-09-03T12:38:50;2.75;;;0.90;;
31768;SDS011;18342;52.132;21.048;2022-09-03T12:41:21;4.07;;;0.60;;
31768;SDS011;18342;52.132;21.048;2022-09-03T12:43:52;2.85;;;1.00;;
31768;SDS011;18342;52.132;21.048;2022-09-03T12:46:26;3.63;;;0.85;;
31768;SDS011;18342;52.132;21.048;2022-09-03T12:51:29;2.00;;;0.95;;
31768;SDS011;18342;52.132;21.048;2022-09-03T12:53:56;1.77;;;1.00;;
31768;SDS011;18342;52.132;21.048;2022-09-03T12:56:23;2.63;;;0.90;;
31768;SDS011;18342;52.132;21.048;2022-09-03T12:58:55;2.33;;;1.10;;
31768;SDS011;18342;52.132;21.048;2022-09-03T13:01:40;3.67;;;1.10;;
31768;SDS011;18342;52.132;21.048;2022-09-03T13:04:12;1.90;;;1.00;;
31768;SDS011;18342;52.132;21.048;2022-09-03T13:09:20;1.38;;;0.88;;
31768;SDS011;18342;52.132;21.048;2022-09-03T13:11:48;1.58;;;0.80;;
31768;SDS011;18342;52.132;21.048;2022-09-03T13:14:16;1.63;;;0.70;;
31768;SDS011;18342;52.132;21.048;2022-09-03T13:30:09;2.55;;;1.00;;
31768;SDS011;18342;52.132;21.048;2022-09-03T13:33:13;1.90;;;1.10;;
31768;SDS011;18342;52.132;21.048;2022-09-03T13:49:33;1.38;;;1.00;;
31768;SDS011;18342;52.132;21.048;2022-09-03T13:52:33;4.20;;;0.90;;
31768;SDS011;18342;52.132;21.048;2022-09-03T14:03:49;3.47;;;1.00;;
31768;SDS011;18342;52.132;21.048;2022-09-03T14:06:35;5.63;;;1.00;;
31768;SDS011;18342;52.132;21.048;2022-09-03T14:20:05;3.30;;;0.90;;
31768;SDS011;18342;52.132;21.048;2022-09-03T14:25:17;3.35;;;0.90;;
31768;SDS011;18342;52.132;21.048;2022-09-03T14:27:45;1.70;;;1.00;;
31768;SDS011;18342;52.132;21.048;2022-09-03T14:40:44;0.98;;;0.80;;
31768;SDS011;18342;52.132;21.048;2022-09-03T14:54:02;3.05;;;1.00;;
31768;SDS011;18342;52.132;21.048;2022-09-03T15:10:20;1.50;;;0.82;;
31768;SDS011;18342;52.132;21.048;2022-09-03T15:13:24;4.90;;;1.20;;
31768;SDS011;18342;52.132;21.048;2022-09-03T15:18:31;1.92;;;1.10;;
31768;SDS011;18342;52.132;21.048;2022-09-03T15:37:24;2.00;;;1.35;;
31768;SDS011;18342;52.132;21.048;2022-09-03T15:43:09;6.20;;;1.60;;
31768;SDS011;18342;52.132;21.048;2022-09-03T15:45:48;4.70;;;1.50;;
31768;SDS011;18342;52.132;21.048;2022-09-03T15:50:52;2.00;;;1.40;;
31768;SDS011;18342;52.132;21.048;2022-09-03T15:56:24;3.55;;;1.58;;
31768;SDS011;18342;52.132;21.048;2022-09-03T15:59:04;3.42;;;1.77;;
31768;SDS011;18342;52.132;21.048;2022-09-03T16:07:08;5.10;;;2.08;;
31768;SDS011;18342;52.132;21.048;2022-09-03T16:15:06;4.75;;;2.20;;
31768;SDS011;18342;52.132;21.048;2022-09-03T16:17:49;4.38;;;2.22;;
31768;SDS011;18342;52.132;21.048;2022-09-03T16:22:55;5.53;;;2.05;;
31768;SDS011;18342;52.132;21.048;2022-09-03T16:25:26;3.15;;;2.08;;
31768;SDS011;18342;52.132;21.048;2022-09-03T16:44:21;7.53;;;2.08;;
31768;SDS011;18342;52.132;21.048;2022-09-03T16:55:34;3.63;;;1.80;;
31768;SDS011;18342;52.132;21.048;2022-09-03T16:58:23;2.03;;;1.83;;
31768;SDS011;18342;52.132;21.048;2022-09-03T17:04:02;4.35;;;1.75;;
31768;SDS011;18342;52.132;21.048;2022-09-03T17:18:18;2.92;;;1.92;;
31768;SDS011;18342;52.132;21.048;2022-09-03T17:26:20;3.70;;;2.10;;
31768;SDS011;18342;52.132;21.048;2022-09-03T17:29:21;4.55;;;2.35;;
31768;SDS011;18342;52.132;21.048;2022-09-03T17:37:58;7.68;;;3.90;;
31768;SDS011;18342;52.132;21.048;2022-09-03T17:48:59;9.80;;;6.05;;
31768;SDS011;18342;52.132;21.048;2022-09-03T17:54:16;16.00;;;7.85;;
31768;SDS011;18342;52.132;21.048;2022-09-03T17:56:59;11.50;;;7.18;;
31768;SDS011;18342;52.132;21.048;2022-09-03T18:00:20;9.13;;;6.07;;
31768;SDS011;18342;52.132;21.048;2022-09-03T18:02:36;11.18;;;3.88;;
31768;SDS011;18342;52.132;21.048;2022-09-03T18:15:58;6.60;;;4.30;;
31768;SDS011;18342;52.132;21.048;2022-09-03T18:18:32;5.32;;;3.63;;
31768;SDS011;18342;52.132;21.048;2022-09-03T18:21:04;4.95;;;2.67;;
31768;SDS011;18342;52.132;21.048;2022-09-03T18:24:03;7.43;;;2.70;;
31768;SDS011;18342;52.132;21.048;2022-09-03T18:27:17;4.40;;;2.67;;
31768;SDS011;18342;52.132;21.048;2022-09-03T18:30:11;4.68;;;2.92;;
31768;SDS011;18342;52.132;21.048;2022-09-03T18:32:57;9.05;;;3.92;;
31768;SDS011;18342;52.132;21.048;2022-09-03T18:35:43;7.30;;;3.30;;
31768;SDS011;18342;52.132;21.048;2022-09-03T18:38:35;9.30;;;3.55;;
31768;SDS011;18342;52.132;21.048;2022-09-03T18:55:55;5.97;;;3.20;;
31768;SDS011;18342;52.132;21.048;2022-09-03T19:01:49;7.05;;;3.08;;
31768;SDS011;18342;52.132;21.048;2022-09-03T19:10:27;7.72;;;3.78;;
31768;SDS011;18342;52.132;21.048;2022-09-03T19:13:35;8.05;;;3.72;;
31768;SDS011;18342;52.132;21.048;2022-09-03T19:16:42;6.85;;;4.00;;
31768;SDS011;18342;52.132;21.048;2022-09-03T19:22:45;6.40;;;3.80;;
31768;SDS011;18342;52.132;21.048;2022-09-03T19:25:29;4.90;;;3.05;;
31768;SDS011;18342;52.132;21.048;2022-09-03T19:28:18;6.63;;;2.92;;
31768;SDS011;18342;52.132;21.048;2022-09-03T19:34:20;3.58;;;2.92;;
31768;SDS011;18342;52.132;21.048;2022-09-03T19:37:22;4.47;;;2.70;;
31768;SDS011;18342;52.132;21.048;2022-09-03T19:46:40;10.68;;;2.75;;
31768;SDS011;18342;52.132;21.048;2022-09-03T19:53:17;9.40;;;3.10;;
31768;SDS011;18342;52.132;21.048;2022-09-03T19:56:04;9.85;;;3.05;;
31768;SDS011;18342;52.132;21.048;2022-09-03T19:58:54;7.20;;;2.90;;
31768;SDS011;18342;52.132;21.048;2022-09-03T20:01:40;5.82;;;3.38;;
31768;SDS011;18342;52.132;21.048;2022-09-03T20:04:42;5.85;;;2.90;;
31768;SDS011;18342;52.132;21.048;2022-09-03T20:07:30;6.57;;;3.25;;
31768;SDS011;18342;52.132;21.048;2022-09-03T20:10:16;5.65;;;2.83;;
31768;SDS011;18342;52.132;21.048;2022-09-03T20:15:34;4.40;;;3.05;;
31768;SDS011;18342;52.132;21.048;2022-09-03T20:34:38;8.32;;;3.88;;
31768;SDS011;18342;52.132;21.048;2022-09-03T20:37:40;6.28;;;3.50;;
31768;SDS011;18342;52.132;21.048;2022-09-03T20:51:18;6.63;;;3.63;;
31768;SDS011;18342;52.132;21.048;2022-09-03T20:56:35;8.65;;;4.63;;
31768;SDS011;18342;52.132;21.048;2022-09-03T21:00:12;9.63;;;4.75;;
31768;SDS011;18342;52.132;21.048;2022-09-03T21:24:38;6.87;;;4.23;;
31768;SDS011;18342;52.132;21.048;2022-09-03T21:27:08;9.02;;;4.18;;
31768;SDS011;18342;52.132;21.048;2022-09-03T21:29:40;7.90;;;4.47;;
31768;SDS011;18342;52.132;21.048;2022-09-03T21:32:20;6.40;;;5.03;;
31768;SDS011;18342;52.132;21.048;2022-09-03T21:37:30;10.40;;;5.00;;
31768;SDS011;18342;52.132;21.048;2022-09-03T21:40:00;12.10;;;5.60;;
31768;SDS011;18342;52.132;21.048;2022-09-03T21:45:06;9.30;;;5.97;;
31768;SDS011;18342;52.132;21.048;2022-09-03T21:47:36;11.20;;;5.50;;
31768;SDS011;18342;52.132;21.048;2022-09-03T22:01:16;13.43;;;6.70;;
31768;SDS011;18342;52.132;21.048;2022-09-03T22:03:47;9.07;;;6.63;;
31768;SDS011;18342;52.132;21.048;2022-09-03T22:06:14;9.40;;;5.97;;
31768;SDS011;18342;52.132;21.048;2022-09-03T22:08:49;10.90;;;6.43;;
31768;SDS011;18342;52.132;21.048;2022-09-03T22:11:27;12.77;;;7.10;;
31768;SDS011;18342;52.132;21.048;2022-09-03T22:14:12;9.73;;;5.95;;
31768;SDS011;18342;52.132;21.048;2022-09-03T22:16:47;9.67;;;6.30;;
31768;SDS011;18342;52.132;21.048;2022-09-03T22:19:20;10.70;;;6.30;;
31768;SDS011;18342;52.132;21.048;2022-09-03T22:21:50;11.60;;;6.77;;
31768;SDS011;18342;52.132;21.048;2022-09-03T22:24:26;11.53;;;6.00;;
31768;SDS011;18342;52.132;21.048;2022-09-03T22:42:51;10.10;;;5.87;;
31768;SDS011;18342;52.132;21.048;2022-09-03T22:50:55;9.63;;;5.70;;
31768;SDS011;18342;52.132;21.048;2022-09-03T22:56:14;9.30;;;6.03;;
31768;SDS011;18342;52.132;21.048;2022-09-03T22:59:03;10.07;;;6.00;;
31768;SDS011;18342;52.132;21.048;2022-09-03T23:04:26;8.40;;;5.90;;
31768;SDS011;18342;52.132;21.048;2022-09-03T23:07:08;9.90;;;5.60;;
31768;SDS011;18342;52.132;21.048;2022-09-03T23:09:57;11.20;;;6.20;;
31768;SDS011;18342;52.132;21.048;2022-09-03T23:15:19;12.43;;;5.50;;
31768;SDS011;18342;52.132;21.048;2022-09-03T23:18:13;11.27;;;6.17;;
31768;SDS011;18342;52.132;21.048;2022-09-03T23:20:46;11.07;;;6.40;;
31768;SDS011;18342;52.132;21.048;2022-09-03T23:23:21;9.77;;;6.40;;
31768;SDS011;18342;52.132;21.048;2022-09-03T23:31:36;9.60;;;7.17;;